sensor_id;sensor_type;location;lat;lon;timestamp;P1;durP1;ratioP1;P2;durP2;ratioP2
8978;SDS011;4524;51.364;5.448;2022-07-12T00:00:30;3.27;;;3.07;;
8978;SDS011;4524;51.364;5.448;2022-07-12T00:02:58;4.53;;;3.20;;
8978;SDS011;4524;51.364;5.448;2022-07-12T00:05:26;4.10;;;3.50;;
8978;SDS011;4524;51.364;5.448;2022-07-12T00:07:54;3.67;;;2.67;;
8978;SDS011;4524;51.364;5.448;2022-07-12T00:10:22;4.33;;;2.77;;
8978;SDS011;4524;51.364;5.448;2022-07-12T00:12:50;2.83;;;2.60;;
8978;SDS011;4524;51.364;5.448;2022-07-12T00:15:19;3.30;;;3.00;;
8978;SDS011;4524;51.364;5.448;2022-07-12T00:17:49;3.23;;;2.80;;
8978;SDS011;4524;51.364;5.448;2022-07-12T00:20:17;4.20;;;3.30;;
8978;SDS011;4524;51.364;5.448;2022-07-12T00:22:45;3.17;;;2.97;;
8978;SDS011;4524;51.364;5.448;2022-07-12T00:25:14;5.17;;;4.00;;
8978;SDS011;4524;51.364;5.448;2022-07-12T00:27:42;3.77;;;3.33;;
8978;SDS011;4524;51.364;5.448;2022-07-12T00:30:10;4.30;;;3.10;;
8978;SDS011;4524;51.364;5.448;2022-07-12T00:32:38;3.30;;;3.07;;
8978;SDS011;4524;51.364;5.448;2022-07-12T00:35:08;4.43;;;3.73;;
8978;SDS011;4524;51.364;5.448;2022-07-12T00:37:36;4.17;;;3.53;;
8978;SDS011;4524;51.364;5.448;2022-07-12T00:40:04;4.67;;;4.10;;
8978;SDS011;4524;51.364;5.448;2022-07-12T00:42:33;5.93;;;4.43;;
8978;SDS011;4524;51.364;5.448;2022-07-12T00:45:01;4.27;;;3.87;;
8978;SDS011;4524;51.364;5.448;2022-07-12T00:47:32;5.07;;;4.63;;
8978;SDS011;4524;51.364;5.448;2022-07-12T00:50:04;5.13;;;3.93;;
8978;SDS011;4524;51.364;5.448;2022-07-12T00:52:36;5.23;;;3.40;;
8978;SDS011;4524;51.364;5.448;2022-07-12T00:55:05;3.80;;;3.40;;
8978;SDS011;4524;51.364;5.448;2022-07-12T00:57:34;6.20;;;3.80;;
8978;SDS011;4524;51.364;5.448;2022-07-12T01:00:02;3.50;;;3.20;;
8978;SDS011;4524;51.364;5.448;2022-07-12T01:02:33;4.87;;;4.37;;
8978;SDS011;4524;51.364;5.448;2022-07-12T01:05:03;4.23;;;3.83;;
8978;SDS011;4524;51.364;5.448;2022-07-12T01:07:32;4.73;;;4.33;;
8978;SDS011;4524;51.364;5.448;2022-07-12T01:10:02;5.13;;;3.70;;
8978;SDS011;4524;51.364;5.448;2022-07-12T01:12:32;4.50;;;3.03;;
8978;SDS011;4524;51.364;5.448;2022-07-12T01:15:00;3.93;;;3.50;;
8978;SDS011;4524;51.364;5.448;2022-07-12T01:17:29;3.77;;;3.33;;
8978;SDS011;4524;51.364;5.448;2022-07-12T01:19:58;4.37;;;3.97;;
8978;SDS011;4524;51.364;5.448;2022-07-12T01:22:27;3.73;;;3.43;;
8978;SDS011;4524;51.364;5.448;2022-07-12T01:24:59;4.83;;;3.60;;
8978;SDS011;4524;51.364;5.448;2022-07-12T01:27:28;3.23;;;3.00;;
8978;SDS011;4524;51.364;5.448;2022-07-12T01:29:57;5.97;;;3.10;;
8978;SDS011;4524;51.364;5.448;2022-07-12T01:32:27;5.20;;;3.50;;
8978;SDS011;4524;51.364;5.448;2022-07-12T01:34:57;3.47;;;3.00;;
8978;SDS011;4524;51.364;5.448;2022-07-12T01:37:29;5.90;;;3.10;;
8978;SDS011;4524;51.364;5.448;2022-07-12T01:40:00;3.23;;;2.77;;
8978;SDS011;4524;51.364;5.448;2022-07-12T01:42:29;3.43;;;3.10;;
8978;SDS011;4524;51.364;5.448;2022-07-12T01:44:57;3.53;;;3.20;;
8978;SDS011;4524;51.364;5.448;2022-07-12T01:47:26;3.53;;;2.90;;
8978;SDS011;4524;51.364;5.448;2022-07-12T01:49:55;4.40;;;3.67;;
8978;SDS011;4524;51.364;5.448;2022-07-12T01:52:23;4.17;;;2.90;;
8978;SDS011;4524;51.364;5.448;2022-07-12T01:54:52;4.40;;;3.20;;
8978;SDS011;4524;51.364;5.448;2022-07-12T01:57:22;3.40;;;3.10;;
8978;SDS011;4524;51.364;5.448;2022-07-12T01:59:52;3.93;;;3.63;;
8978;SDS011;4524;51.364;5.448;2022-07-12T02:02:22;5.17;;;3.60;;
8978;SDS011;4524;51.364;5.448;2022-07-12T02:04:52;3.07;;;2.87;;
8978;SDS011;4524;51.364;5.448;2022-07-12T02:07:21;4.07;;;3.43;;
8978;SDS011;4524;51.364;5.448;2022-07-12T02:09:50;3.83;;;3.40;;
8978;SDS011;4524;51.364;5.448;2022-07-12T02:12:18;3.83;;;3.53;;
8978;SDS011;4524;51.364;5.448;2022-07-12T02:14:47;3.37;;;3.07;;
8978;SDS011;4524;51.364;5.448;2022-07-12T02:17:15;3.17;;;2.97;;
8978;SDS011;4524;51.364;5.448;2022-07-12T02:19:44;4.87;;;3.77;;
8978;SDS011;4524;51.364;5.448;2022-07-12T02:22:12;4.07;;;3.70;;
8978;SDS011;4524;51.364;5.448;2022-07-12T02:24:40;4.27;;;2.93;;
8978;SDS011;4524;51.364;5.448;2022-07-12T02:27:08;3.53;;;3.20;;
8978;SDS011;4524;51.364;5.448;2022-07-12T02:29:36;3.93;;;3.20;;
8978;SDS011;4524;51.364;5.448;2022-07-12T02:32:05;3.20;;;2.97;;
8978;SDS011;4524;51.364;5.448;2022-07-12T02:34:33;3.77;;;3.30;;
8978;SDS011;4524;51.364;5.448;2022-07-12T02:37:01;4.70;;;3.47;;
8978;SDS011;4524;51.364;5.448;2022-07-12T02:39:29;3.00;;;2.80;;
8978;SDS011;4524;51.364;5.448;2022-07-12T02:41:57;3.33;;;3.03;;
8978;SDS011;4524;51.364;5.448;2022-07-12T02:44:25;3.60;;;3.30;;
8978;SDS011;4524;51.364;5.448;2022-07-12T02:46:53;3.07;;;2.73;;
8978;SDS011;4524;51.364;5.448;2022-07-12T02:49:23;3.03;;;2.83;;
8978;SDS011;4524;51.364;5.448;2022-07-12T02:51:51;2.87;;;2.67;;
8978;SDS011;4524;51.364;5.448;2022-07-12T02:54:18;3.30;;;3.00;;
8978;SDS011;4524;51.364;5.448;2022-07-12T02:56:46;4.00;;;3.30;;
8978;SDS011;4524;51.364;5.448;2022-07-12T02:59:14;4.53;;;3.80;;
8978;SDS011;4524;51.364;5.448;2022-07-12T03:01:42;3.77;;;3.47;;
8978;SDS011;4524;51.364;5.448;2022-07-12T03:04:10;3.50;;;3.20;;
8978;SDS011;4524;51.364;5.448;2022-07-12T03:06:39;4.73;;;3.50;;
8978;SDS011;4524;51.364;5.448;2022-07-12T03:09:07;3.43;;;3.13;;
8978;SDS011;4524;51.364;5.448;2022-07-12T03:11:35;3.60;;;3.17;;
8978;SDS011;4524;51.364;5.448;2022-07-12T03:14:03;3.77;;;3.40;;
8978;SDS011;4524;51.364;5.448;2022-07-12T03:16:31;4.00;;;3.70;;
8978;SDS011;4524;51.364;5.448;2022-07-12T03:18:59;4.53;;;3.50;;
8978;SDS011;4524;51.364;5.448;2022-07-12T03:21:27;3.83;;;3.43;;
8978;SDS011;4524;51.364;5.448;2022-07-12T03:23:56;4.17;;;3.83;;
8978;SDS011;4524;51.364;5.448;2022-07-12T03:26:24;3.70;;;3.40;;
8978;SDS011;4524;51.364;5.448;2022-07-12T03:28:52;4.77;;;3.70;;
8978;SDS011;4524;51.364;5.448;2022-07-12T03:31:20;3.83;;;3.53;;
8978;SDS011;4524;51.364;5.448;2022-07-12T03:33:49;4.13;;;3.77;;
8978;SDS011;4524;51.364;5.448;2022-07-12T03:36:17;4.63;;;4.00;;
8978;SDS011;4524;51.364;5.448;2022-07-12T03:38:45;4.00;;;3.70;;
8978;SDS011;4524;51.364;5.448;2022-07-12T03:41:14;4.13;;;3.80;;
8978;SDS011;4524;51.364;5.448;2022-07-12T03:43:42;5.53;;;4.47;;
8978;SDS011;4524;51.364;5.448;2022-07-12T03:46:10;4.70;;;3.70;;
8978;SDS011;4524;51.364;5.448;2022-07-12T03:48:38;4.53;;;3.93;;
8978;SDS011;4524;51.364;5.448;2022-07-12T03:51:06;5.03;;;4.07;;
8978;SDS011;4524;51.364;5.448;2022-07-12T03:53:34;5.37;;;4.30;;
8978;SDS011;4524;51.364;5.448;2022-07-12T03:56:01;4.30;;;4.00;;
8978;SDS011;4524;51.364;5.448;2022-07-12T03:58:31;3.87;;;3.57;;
8978;SDS011;4524;51.364;5.448;2022-07-12T04:00:59;4.70;;;4.30;;
8978;SDS011;4524;51.364;5.448;2022-07-12T04:03:27;6.57;;;4.70;;
8978;SDS011;4524;51.364;5.448;2022-07-12T04:05:55;6.03;;;5.53;;
8978;SDS011;4524;51.364;5.448;2022-07-12T04:08:26;6.40;;;5.30;;
8978;SDS011;4524;51.364;5.448;2022-07-12T04:10:54;6.50;;;5.50;;
8978;SDS011;4524;51.364;5.448;2022-07-12T04:13:22;4.20;;;3.70;;
8978;SDS011;4524;51.364;5.448;2022-07-12T04:15:52;4.13;;;3.83;;
8978;SDS011;4524;51.364;5.448;2022-07-12T04:18:20;4.70;;;4.30;;
8978;SDS011;4524;51.364;5.448;2022-07-12T04:20:55;5.70;;;4.60;;
8978;SDS011;4524;51.364;5.448;2022-07-12T04:23:23;5.63;;;5.13;;
8978;SDS011;4524;51.364;5.448;2022-07-12T04:25:51;6.40;;;5.80;;
8978;SDS011;4524;51.364;5.448;2022-07-12T04:28:19;7.57;;;5.90;;
8978;SDS011;4524;51.364;5.448;2022-07-12T04:30:47;6.63;;;6.03;;
8978;SDS011;4524;51.364;5.448;2022-07-12T04:33:16;7.60;;;6.90;;
8978;SDS011;4524;51.364;5.448;2022-07-12T04:35:44;9.53;;;8.73;;
8978;SDS011;4524;51.364;5.448;2022-07-12T04:38:12;9.53;;;8.50;;
8978;SDS011;4524;51.364;5.448;2022-07-12T04:40:40;9.07;;;8.27;;
8978;SDS011;4524;51.364;5.448;2022-07-12T04:43:08;8.30;;;7.53;;
8978;SDS011;4524;51.364;5.448;2022-07-12T04:45:36;8.03;;;7.30;;
8978;SDS011;4524;51.364;5.448;2022-07-12T04:48:04;6.70;;;6.10;;
8978;SDS011;4524;51.364;5.448;2022-07-12T04:50:34;11.00;;;9.90;;
8978;SDS011;4524;51.364;5.448;2022-07-12T04:53:02;10.63;;;9.83;;
8978;SDS011;4524;51.364;5.448;2022-07-12T04:55:31;11.97;;;10.87;;
8978;SDS011;4524;51.364;5.448;2022-07-12T04:57:59;13.00;;;11.90;;
8978;SDS011;4524;51.364;5.448;2022-07-12T05:00:26;12.80;;;11.60;;
8978;SDS011;4524;51.364;5.448;2022-07-12T05:02:54;13.30;;;11.80;;
8978;SDS011;4524;51.364;5.448;2022-07-12T05:05:22;11.00;;;10.10;;
8978;SDS011;4524;51.364;5.448;2022-07-12T05:07:52;12.57;;;11.43;;
8978;SDS011;4524;51.364;5.448;2022-07-12T05:10:20;13.10;;;11.97;;
8978;SDS011;4524;51.364;5.448;2022-07-12T05:12:47;14.90;;;13.70;;
8978;SDS011;4524;51.364;5.448;2022-07-12T05:15:16;15.37;;;14.03;;
8978;SDS011;4524;51.364;5.448;2022-07-12T05:17:44;14.43;;;12.93;;
8978;SDS011;4524;51.364;5.448;2022-07-12T05:20:12;13.00;;;11.83;;
8978;SDS011;4524;51.364;5.448;2022-07-12T05:22:41;15.43;;;13.90;;
8978;SDS011;4524;51.364;5.448;2022-07-12T05:25:10;14.10;;;12.90;;
8978;SDS011;4524;51.364;5.448;2022-07-12T05:27:38;14.13;;;12.90;;
8978;SDS011;4524;51.364;5.448;2022-07-12T05:30:06;14.03;;;12.33;;
8978;SDS011;4524;51.364;5.448;2022-07-12T05:32:35;15.00;;;13.80;;
8978;SDS011;4524;51.364;5.448;2022-07-12T05:35:03;11.97;;;10.87;;
8978;SDS011;4524;51.364;5.448;2022-07-12T05:37:32;12.30;;;11.17;;
8978;SDS011;4524;51.364;5.448;2022-07-12T05:40:00;12.57;;;11.47;;
8978;SDS011;4524;51.364;5.448;2022-07-12T05:42:29;13.53;;;12.40;;
8978;SDS011;4524;51.364;5.448;2022-07-12T05:44:57;13.60;;;12.40;;
8978;SDS011;4524;51.364;5.448;2022-07-12T05:47:25;15.40;;;14.00;;
8978;SDS011;4524;51.364;5.448;2022-07-12T05:50:01;15.70;;;14.30;;
8978;SDS011;4524;51.364;5.448;2022-07-12T05:52:29;17.43;;;15.73;;
8978;SDS011;4524;51.364;5.448;2022-07-12T05:55:15;18.63;;;16.93;;
8978;SDS011;4524;51.364;5.448;2022-07-12T05:57:44;18.73;;;17.17;;
8978;SDS011;4524;51.364;5.448;2022-07-12T06:00:12;18.77;;;16.97;;
8978;SDS011;4524;51.364;5.448;2022-07-12T06:02:41;20.57;;;18.77;;
8978;SDS011;4524;51.364;5.448;2022-07-12T06:05:10;20.63;;;18.73;;
8978;SDS011;4524;51.364;5.448;2022-07-12T06:07:37;19.80;;;17.87;;
8978;SDS011;4524;51.364;5.448;2022-07-12T06:10:05;18.53;;;16.67;;
8978;SDS011;4524;51.364;5.448;2022-07-12T06:12:34;20.10;;;18.20;;
8978;SDS011;4524;51.364;5.448;2022-07-12T06:15:06;18.73;;;16.97;;
8978;SDS011;4524;51.364;5.448;2022-07-12T06:17:34;16.80;;;15.30;;
8978;SDS011;4524;51.364;5.448;2022-07-12T06:20:02;16.60;;;14.90;;
8978;SDS011;4524;51.364;5.448;2022-07-12T06:22:31;14.27;;;12.97;;
8978;SDS011;4524;51.364;5.448;2022-07-12T06:24:59;13.97;;;12.77;;
8978;SDS011;4524;51.364;5.448;2022-07-12T06:27:47;14.10;;;12.73;;
8978;SDS011;4524;51.364;5.448;2022-07-12T06:30:17;14.37;;;13.10;;
8978;SDS011;4524;51.364;5.448;2022-07-12T06:32:46;14.17;;;12.97;;
8978;SDS011;4524;51.364;5.448;2022-07-12T06:35:15;13.27;;;12.07;;
8978;SDS011;4524;51.364;5.448;2022-07-12T06:37:43;13.80;;;12.60;;
8978;SDS011;4524;51.364;5.448;2022-07-12T06:40:11;13.23;;;11.80;;
8978;SDS011;4524;51.364;5.448;2022-07-12T06:42:43;13.37;;;12.17;;
8978;SDS011;4524;51.364;5.448;2022-07-12T06:45:11;15.10;;;12.50;;
8978;SDS011;4524;51.364;5.448;2022-07-12T06:47:40;13.67;;;12.30;;
8978;SDS011;4524;51.364;5.448;2022-07-12T06:50:08;11.73;;;10.53;;
8978;SDS011;4524;51.364;5.448;2022-07-12T06:52:36;12.83;;;11.53;;
8978;SDS011;4524;51.364;5.448;2022-07-12T06:55:04;11.70;;;10.57;;
8978;SDS011;4524;51.364;5.448;2022-07-12T06:57:33;12.13;;;10.93;;
8978;SDS011;4524;51.364;5.448;2022-07-12T07:00:01;12.83;;;11.57;;
8978;SDS011;4524;51.364;5.448;2022-07-12T07:02:30;13.90;;;12.60;;
8978;SDS011;4524;51.364;5.448;2022-07-12T07:05:00;12.10;;;11.00;;
8978;SDS011;4524;51.364;5.448;2022-07-12T07:07:28;10.87;;;9.97;;
8978;SDS011;4524;51.364;5.448;2022-07-12T07:09:56;12.07;;;10.97;;
8978;SDS011;4524;51.364;5.448;2022-07-12T07:12:24;12.17;;;11.07;;
8978;SDS011;4524;51.364;5.448;2022-07-12T07:14:52;10.30;;;9.40;;
8978;SDS011;4524;51.364;5.448;2022-07-12T07:17:20;9.70;;;8.87;;
8978;SDS011;4524;51.364;5.448;2022-07-12T07:19:48;9.50;;;8.50;;
8978;SDS011;4524;51.364;5.448;2022-07-12T07:22:17;9.53;;;8.73;;
8978;SDS011;4524;51.364;5.448;2022-07-12T07:24:45;9.47;;;8.67;;
8978;SDS011;4524;51.364;5.448;2022-07-12T07:27:13;9.63;;;7.33;;
8978;SDS011;4524;51.364;5.448;2022-07-12T07:29:41;9.03;;;8.27;;
8978;SDS011;4524;51.364;5.448;2022-07-12T07:32:27;7.37;;;6.80;;
8978;SDS011;4524;51.364;5.448;2022-07-12T07:34:55;7.20;;;6.60;;
8978;SDS011;4524;51.364;5.448;2022-07-12T07:37:24;7.57;;;6.63;;
8978;SDS011;4524;51.364;5.448;2022-07-12T07:39:52;7.53;;;6.83;;
8978;SDS011;4524;51.364;5.448;2022-07-12T07:42:20;7.17;;;6.47;;
8978;SDS011;4524;51.364;5.448;2022-07-12T07:44:48;8.05;;;7.25;;
8978;SDS011;4524;51.364;5.448;2022-07-12T07:47:42;6.53;;;5.93;;
8978;SDS011;4524;51.364;5.448;2022-07-12T07:50:30;7.53;;;6.93;;
8978;SDS011;4524;51.364;5.448;2022-07-12T07:53:00;7.03;;;6.33;;
8978;SDS011;4524;51.364;5.448;2022-07-12T07:55:28;7.30;;;5.80;;
8978;SDS011;4524;51.364;5.448;2022-07-12T07:57:56;7.67;;;5.30;;
8978;SDS011;4524;51.364;5.448;2022-07-12T08:00:25;5.90;;;5.40;;
8978;SDS011;4524;51.364;5.448;2022-07-12T08:02:54;5.50;;;5.00;;
8978;SDS011;4524;51.364;5.448;2022-07-12T08:05:22;7.73;;;4.73;;
8978;SDS011;4524;51.364;5.448;2022-07-12T08:07:54;5.43;;;5.03;;
8978;SDS011;4524;51.364;5.448;2022-07-12T08:10:24;5.53;;;5.03;;
8978;SDS011;4524;51.364;5.448;2022-07-12T08:12:52;4.70;;;4.30;;
8978;SDS011;4524;51.364;5.448;2022-07-12T08:15:20;4.90;;;4.50;;
8978;SDS011;4524;51.364;5.448;2022-07-12T08:17:48;5.27;;;4.77;;
8978;SDS011;4524;51.364;5.448;2022-07-12T08:20:20;5.57;;;5.07;;
8978;SDS011;4524;51.364;5.448;2022-07-12T08:23:09;6.47;;;4.60;;
8978;SDS011;4524;51.364;5.448;2022-07-12T08:25:38;4.70;;;4.30;;
8978;SDS011;4524;51.364;5.448;2022-07-12T08:28:07;4.10;;;3.67;;
8978;SDS011;4524;51.364;5.448;2022-07-12T08:30:35;5.20;;;4.30;;
8978;SDS011;4524;51.364;5.448;2022-07-12T08:33:11;4.83;;;4.43;;
8978;SDS011;4524;51.364;5.448;2022-07-12T08:35:39;5.80;;;3.87;;
8978;SDS011;4524;51.364;5.448;2022-07-12T08:38:07;4.27;;;3.87;;
8978;SDS011;4524;51.364;5.448;2022-07-12T08:40:36;5.40;;;4.70;;
8978;SDS011;4524;51.364;5.448;2022-07-12T08:43:06;4.90;;;4.40;;
8978;SDS011;4524;51.364;5.448;2022-07-12T08:45:34;4.77;;;4.37;;
8978;SDS011;4524;51.364;5.448;2022-07-12T08:48:02;4.63;;;4.10;;
8978;SDS011;4524;51.364;5.448;2022-07-12T08:50:31;5.20;;;4.80;;
8978;SDS011;4524;51.364;5.448;2022-07-12T08:52:59;5.97;;;5.37;;
8978;SDS011;4524;51.364;5.448;2022-07-12T08:55:27;6.10;;;5.30;;
8978;SDS011;4524;51.364;5.448;2022-07-12T08:58:00;6.20;;;5.70;;
8978;SDS011;4524;51.364;5.448;2022-07-12T09:00:31;6.57;;;5.97;;
8978;SDS011;4524;51.364;5.448;2022-07-12T09:03:00;6.57;;;5.97;;
8978;SDS011;4524;51.364;5.448;2022-07-12T09:05:30;6.03;;;5.43;;
8978;SDS011;4524;51.364;5.448;2022-07-12T09:08:03;6.97;;;6.17;;
8978;SDS011;4524;51.364;5.448;2022-07-12T09:10:32;7.47;;;6.70;;
8978;SDS011;4524;51.364;5.448;2022-07-12T09:13:01;6.97;;;6.37;;
8978;SDS011;4524;51.364;5.448;2022-07-12T09:15:30;9.77;;;6.77;;
8978;SDS011;4524;51.364;5.448;2022-07-12T09:18:00;10.37;;;7.07;;
8978;SDS011;4524;51.364;5.448;2022-07-12T09:20:29;8.00;;;7.10;;
8978;SDS011;4524;51.364;5.448;2022-07-12T09:22:59;7.63;;;6.97;;
8978;SDS011;4524;51.364;5.448;2022-07-12T09:25:29;7.23;;;6.30;;
8978;SDS011;4524;51.364;5.448;2022-07-12T09:27:57;6.70;;;6.10;;
8978;SDS011;4524;51.364;5.448;2022-07-12T09:30:27;7.03;;;6.27;;
8978;SDS011;4524;51.364;5.448;2022-07-12T09:33:00;5.53;;;5.10;;
8978;SDS011;4524;51.364;5.448;2022-07-12T09:35:57;6.00;;;5.40;;
8978;SDS011;4524;51.364;5.448;2022-07-12T09:38:36;6.20;;;5.53;;
8978;SDS011;4524;51.364;5.448;2022-07-12T09:41:06;8.50;;;5.83;;
8978;SDS011;4524;51.364;5.448;2022-07-12T09:43:34;6.97;;;6.27;;
8978;SDS011;4524;51.364;5.448;2022-07-12T09:46:02;7.93;;;6.23;;
8978;SDS011;4524;51.364;5.448;2022-07-12T09:48:32;10.17;;;6.63;;
8978;SDS011;4524;51.364;5.448;2022-07-12T09:51:02;7.83;;;6.20;;
8978;SDS011;4524;51.364;5.448;2022-07-12T09:53:31;5.70;;;5.20;;
8978;SDS011;4524;51.364;5.448;2022-07-12T09:56:01;5.97;;;5.37;;
8978;SDS011;4524;51.364;5.448;2022-07-12T09:58:31;6.63;;;5.47;;
8978;SDS011;4524;51.364;5.448;2022-07-12T10:01:06;5.50;;;5.03;;
8978;SDS011;4524;51.364;5.448;2022-07-12T10:03:43;5.67;;;5.17;;
8978;SDS011;4524;51.364;5.448;2022-07-12T10:06:12;5.53;;;4.97;;
8978;SDS011;4524;51.364;5.448;2022-07-12T10:09:00;4.80;;;4.00;;
8978;SDS011;4524;51.364;5.448;2022-07-12T10:11:29;5.20;;;4.70;;
8978;SDS011;4524;51.364;5.448;2022-07-12T10:14:17;5.33;;;4.47;;
8978;SDS011;4524;51.364;5.448;2022-07-12T10:16:46;5.53;;;5.00;;
8978;SDS011;4524;51.364;5.448;2022-07-12T10:19:22;4.90;;;4.40;;
8978;SDS011;4524;51.364;5.448;2022-07-12T10:21:55;5.00;;;4.60;;
8978;SDS011;4524;51.364;5.448;2022-07-12T10:27:30;5.13;;;4.60;;
8978;SDS011;4524;51.364;5.448;2022-07-12T10:30:12;5.17;;;4.50;;
8978;SDS011;4524;51.364;5.448;2022-07-12T10:32:43;4.93;;;3.90;;
8978;SDS011;4524;51.364;5.448;2022-07-12T10:35:14;6.00;;;4.00;;
8978;SDS011;4524;51.364;5.448;2022-07-12T10:40:47;3.10;;;2.90;;
8978;SDS011;4524;51.364;5.448;2022-07-12T10:43:17;3.40;;;2.60;;
8978;SDS011;4524;51.364;5.448;2022-07-12T10:45:47;4.23;;;2.70;;
8978;SDS011;4524;51.364;5.448;2022-07-12T10:48:19;2.97;;;2.60;;
8978;SDS011;4524;51.364;5.448;2022-07-12T10:50:51;2.40;;;2.20;;
8978;SDS011;4524;51.364;5.448;2022-07-12T10:53:25;3.10;;;2.60;;
8978;SDS011;4524;51.364;5.448;2022-07-12T10:58:56;3.40;;;2.63;;
8978;SDS011;4524;51.364;5.448;2022-07-12T11:01:27;5.07;;;2.60;;
8978;SDS011;4524;51.364;5.448;2022-07-12T11:04:02;2.97;;;2.50;;
8978;SDS011;4524;51.364;5.448;2022-07-12T11:06:35;3.23;;;2.73;;
8978;SDS011;4524;51.364;5.448;2022-07-12T11:09:04;4.80;;;2.90;;
8978;SDS011;4524;51.364;5.448;2022-07-12T11:11:34;3.73;;;2.37;;
8978;SDS011;4524;51.364;5.448;2022-07-12T11:14:07;3.13;;;2.70;;
8978;SDS011;4524;51.364;5.448;2022-07-12T11:16:42;3.90;;;2.70;;
8978;SDS011;4524;51.364;5.448;2022-07-12T11:19:11;5.53;;;3.20;;
8978;SDS011;4524;51.364;5.448;2022-07-12T11:21:43;3.27;;;2.97;;
8978;SDS011;4524;51.364;5.448;2022-07-12T11:24:15;3.53;;;3.07;;
8978;SDS011;4524;51.364;5.448;2022-07-12T11:26:44;3.07;;;2.87;;
8978;SDS011;4524;51.364;5.448;2022-07-12T11:29:12;6.30;;;3.33;;
8978;SDS011;4524;51.364;5.448;2022-07-12T11:31:40;3.93;;;3.57;;
8978;SDS011;4524;51.364;5.448;2022-07-12T11:34:18;4.27;;;3.80;;
8978;SDS011;4524;51.364;5.448;2022-07-12T11:36:48;4.47;;;3.80;;
8978;SDS011;4524;51.364;5.448;2022-07-12T11:39:29;3.83;;;3.27;;
8978;SDS011;4524;51.364;5.448;2022-07-12T11:41:58;7.37;;;3.10;;
8978;SDS011;4524;51.364;5.448;2022-07-12T11:44:45;3.90;;;3.50;;
8978;SDS011;4524;51.364;5.448;2022-07-12T11:47:15;2.93;;;2.73;;
8978;SDS011;4524;51.364;5.448;2022-07-12T11:49:44;3.47;;;3.17;;
8978;SDS011;4524;51.364;5.448;2022-07-12T11:52:15;4.03;;;3.50;;
8978;SDS011;4524;51.364;5.448;2022-07-12T11:54:44;3.83;;;3.30;;
8978;SDS011;4524;51.364;5.448;2022-07-12T11:57:12;4.70;;;3.43;;
8978;SDS011;4524;51.364;5.448;2022-07-12T11:59:40;11.70;;;3.80;;
8978;SDS011;4524;51.364;5.448;2022-07-12T12:02:09;4.73;;;3.60;;
8978;SDS011;4524;51.364;5.448;2022-07-12T12:04:48;3.67;;;3.37;;
8978;SDS011;4524;51.364;5.448;2022-07-12T12:07:18;4.63;;;3.00;;
8978;SDS011;4524;51.364;5.448;2022-07-12T12:09:58;3.83;;;3.53;;
8978;SDS011;4524;51.364;5.448;2022-07-12T12:12:27;4.60;;;3.53;;
8978;SDS011;4524;51.364;5.448;2022-07-12T12:14:55;3.33;;;3.00;;
8978;SDS011;4524;51.364;5.448;2022-07-12T12:17:23;4.60;;;2.70;;
8978;SDS011;4524;51.364;5.448;2022-07-12T12:19:51;2.87;;;2.67;;
8978;SDS011;4524;51.364;5.448;2022-07-12T12:22:33;3.27;;;2.47;;
8978;SDS011;4524;51.364;5.448;2022-07-12T12:25:03;3.33;;;2.30;;
8978;SDS011;4524;51.364;5.448;2022-07-12T12:27:32;2.57;;;2.40;;
8978;SDS011;4524;51.364;5.448;2022-07-12T12:30:20;3.33;;;2.17;;
8978;SDS011;4524;51.364;5.448;2022-07-12T12:32:50;3.70;;;2.20;;
8978;SDS011;4524;51.364;5.448;2022-07-12T12:35:20;2.33;;;2.13;;
8978;SDS011;4524;51.364;5.448;2022-07-12T12:37:51;2.13;;;2.03;;
8978;SDS011;4524;51.364;5.448;2022-07-12T12:40:21;2.53;;;2.20;;
8978;SDS011;4524;51.364;5.448;2022-07-12T12:42:50;3.27;;;2.50;;
8978;SDS011;4524;51.364;5.448;2022-07-12T12:45:19;2.37;;;2.27;;
8978;SDS011;4524;51.364;5.448;2022-07-12T12:47:52;3.00;;;2.50;;
8978;SDS011;4524;51.364;5.448;2022-07-12T12:50:37;2.70;;;2.50;;
8978;SDS011;4524;51.364;5.448;2022-07-12T12:53:12;2.80;;;2.60;;
8978;SDS011;4524;51.364;5.448;2022-07-12T12:55:42;2.33;;;2.20;;
8978;SDS011;4524;51.364;5.448;2022-07-12T12:58:11;2.37;;;2.10;;
8978;SDS011;4524;51.364;5.448;2022-07-12T13:00:41;2.30;;;2.10;;
8978;SDS011;4524;51.364;5.448;2022-07-12T13:03:10;3.03;;;2.13;;
8978;SDS011;4524;51.364;5.448;2022-07-12T13:05:39;2.30;;;2.20;;
8978;SDS011;4524;51.364;5.448;2022-07-12T13:08:08;3.00;;;2.40;;
8978;SDS011;4524;51.364;5.448;2022-07-12T13:10:39;2.50;;;2.30;;
8978;SDS011;4524;51.364;5.448;2022-07-12T13:13:08;3.50;;;2.30;;
8978;SDS011;4524;51.364;5.448;2022-07-12T13:15:43;2.80;;;2.60;;
8978;SDS011;4524;51.364;5.448;2022-07-12T13:18:11;2.60;;;2.20;;
8978;SDS011;4524;51.364;5.448;2022-07-12T13:20:41;2.80;;;2.60;;
8978;SDS011;4524;51.364;5.448;2022-07-12T13:23:09;6.07;;;2.80;;
8978;SDS011;4524;51.364;5.448;2022-07-12T13:25:38;3.20;;;2.87;;
8978;SDS011;4524;51.364;5.448;2022-07-12T13:28:06;3.90;;;2.80;;
8978;SDS011;4524;51.364;5.448;2022-07-12T13:30:37;4.20;;;3.00;;
8978;SDS011;4524;51.364;5.448;2022-07-12T13:33:05;3.70;;;3.40;;
8978;SDS011;4524;51.364;5.448;2022-07-12T13:35:33;4.13;;;3.30;;
8978;SDS011;4524;51.364;5.448;2022-07-12T13:38:02;3.70;;;3.40;;
8978;SDS011;4524;51.364;5.448;2022-07-12T13:40:30;6.10;;;3.60;;
8978;SDS011;4524;51.364;5.448;2022-07-12T13:42:59;3.27;;;2.97;;
8978;SDS011;4524;51.364;5.448;2022-07-12T13:45:27;3.40;;;3.10;;
8978;SDS011;4524;51.364;5.448;2022-07-12T13:47:55;3.80;;;3.50;;
8978;SDS011;4524;51.364;5.448;2022-07-12T13:50:23;3.80;;;3.43;;
8978;SDS011;4524;51.364;5.448;2022-07-12T13:52:57;3.90;;;3.30;;
8978;SDS011;4524;51.364;5.448;2022-07-12T13:55:27;3.97;;;3.47;;
8978;SDS011;4524;51.364;5.448;2022-07-12T13:57:58;4.17;;;3.77;;
8978;SDS011;4524;51.364;5.448;2022-07-12T14:00:26;5.20;;;3.80;;
8978;SDS011;4524;51.364;5.448;2022-07-12T14:02:54;3.80;;;3.50;;
8978;SDS011;4524;51.364;5.448;2022-07-12T14:05:42;4.57;;;3.80;;
8978;SDS011;4524;51.364;5.448;2022-07-12T14:08:10;3.73;;;3.50;;
8978;SDS011;4524;51.364;5.448;2022-07-12T14:10:40;4.17;;;3.87;;
8978;SDS011;4524;51.364;5.448;2022-07-12T14:13:09;4.03;;;3.50;;
8978;SDS011;4524;51.364;5.448;2022-07-12T14:15:37;4.10;;;3.17;;
8978;SDS011;4524;51.364;5.448;2022-07-12T14:18:06;4.27;;;3.70;;
8978;SDS011;4524;51.364;5.448;2022-07-12T14:20:34;3.90;;;3.60;;
8978;SDS011;4524;51.364;5.448;2022-07-12T14:23:03;4.83;;;3.30;;
8978;SDS011;4524;51.364;5.448;2022-07-12T14:25:33;3.83;;;3.53;;
8978;SDS011;4524;51.364;5.448;2022-07-12T14:28:01;5.13;;;3.60;;
8978;SDS011;4524;51.364;5.448;2022-07-12T14:30:30;4.70;;;3.70;;
8978;SDS011;4524;51.364;5.448;2022-07-12T14:32:58;3.67;;;3.37;;
8978;SDS011;4524;51.364;5.448;2022-07-12T14:35:27;3.90;;;3.47;;
8978;SDS011;4524;51.364;5.448;2022-07-12T14:37:55;4.73;;;3.20;;
8978;SDS011;4524;51.364;5.448;2022-07-12T14:40:23;3.67;;;3.22;;
8978;SDS011;4524;51.364;5.448;2022-07-12T14:42:51;3.67;;;3.37;;
8978;SDS011;4524;51.364;5.448;2022-07-12T14:45:23;3.63;;;2.97;;
8978;SDS011;4524;51.364;5.448;2022-07-12T14:47:52;5.10;;;3.27;;
8978;SDS011;4524;51.364;5.448;2022-07-12T14:50:21;4.80;;;3.30;;
8978;SDS011;4524;51.364;5.448;2022-07-12T14:52:49;3.67;;;3.33;;
8978;SDS011;4524;51.364;5.448;2022-07-12T14:55:17;5.07;;;3.50;;
8978;SDS011;4524;51.364;5.448;2022-07-12T14:57:45;5.37;;;3.13;;
8978;SDS011;4524;51.364;5.448;2022-07-12T15:00:13;3.37;;;3.07;;
8978;SDS011;4524;51.364;5.448;2022-07-12T15:02:41;4.47;;;3.00;;
8978;SDS011;4524;51.364;5.448;2022-07-12T15:05:18;5.20;;;3.07;;
8978;SDS011;4524;51.364;5.448;2022-07-12T15:07:46;6.70;;;3.27;;
8978;SDS011;4524;51.364;5.448;2022-07-12T15:10:14;3.43;;;3.00;;
8978;SDS011;4524;51.364;5.448;2022-07-12T15:12:42;5.17;;;3.27;;
8978;SDS011;4524;51.364;5.448;2022-07-12T15:15:10;3.93;;;3.23;;
8978;SDS011;4524;51.364;5.448;2022-07-12T15:17:38;5.00;;;3.23;;
8978;SDS011;4524;51.364;5.448;2022-07-12T15:20:06;3.80;;;3.17;;
8978;SDS011;4524;51.364;5.448;2022-07-12T15:22:36;4.13;;;3.40;;
8978;SDS011;4524;51.364;5.448;2022-07-12T15:25:04;3.43;;;3.17;;
8978;SDS011;4524;51.364;5.448;2022-07-12T15:27:32;4.57;;;3.37;;
8978;SDS011;4524;51.364;5.448;2022-07-12T15:30:00;4.63;;;3.23;;
8978;SDS011;4524;51.364;5.448;2022-07-12T15:32:30;3.77;;;3.03;;
8978;SDS011;4524;51.364;5.448;2022-07-12T15:35:03;3.40;;;3.10;;